NCAR-RAP Real-Time Weather Data

Output produced by METARs form (08 May 2021  17:13 UTC)
found at http://weather.rap.ucar.edu/surface/
 
KACY 081654Z 27010KT 10SM FEW040 BKN085 13/03 A2987 RMK AO2 SLP112 T01330033
KACY 081554Z 30010G20KT 10SM BKN080 13/04 A2987 RMK AO2 SLP114 T01330039
KACY 081454Z 28014G21KT 10SM SCT037 SCT100 14/04 A2987 RMK AO2 SLP114 T01390044 52002
KACY 081354Z 30013G22KT 10SM SCT027 12/06 A2987 RMK AO2 SLP115 T01220061
KACY 081320Z 27010G17KT 10SM SCT019 SCT023 12/07 A2987 RMK AO2 T01220072
KACY 081254Z 26013G19KT 10SM BKN015 11/07 A2986 RMK AO2 SLP112 T01110072
KACY 081245Z 27009KT 10SM FEW010 BKN015 11/08 A2987 RMK AO2 T01110078
KACY 081233Z 28014KT 10SM FEW010 SCT014 11/07 A2986 RMK AO2 T01110072
KACY 081222Z 28010KT 10SM BKN010 11/08 A2986 RMK AO2 T01060078
KACY 081206Z AUTO 27009KT 10SM BKN009 11/08 A2986 RMK AO2 T01060083 TSNO
KACY 081154Z AUTO 27008KT 10SM BKN010 11/08 A2985 RMK AO2 CIG 008V012 SLP108 60001 70001 T01060083 10111 20100 51009 TSNO
KACY 081151Z AUTO 26008KT 10SM BKN010 10/08 A2985 RMK AO2 CIG 008V012 TSNO
KACY 081107Z AUTO 28008KT 10SM FEW006 BKN040 BKN065 10/08 A2984 RMK AO2 T01000083 TSNO
KACY 081054Z AUTO 26009KT 10SM BKN006 OVC065 10/09 A2983 RMK AO2 RAB20E31 SLP102 P0000 T01000089 TSNO
KACY 081035Z AUTO 23006KT 10SM FEW007 OVC065 10/09 A2983 RMK AO2 RAB20E31 P0000 T01000094 TSNO
KACY 080954Z AUTO 24004KT 10SM OVC050 10/09 A2982 RMK AO2 SLP099 T01000094 TSNO
KACY 080854Z AUTO 29003KT 10SM BKN070 OVC085 10/09 A2982 RMK AO2 RAE0755 SLP096 P0000 60001 T01000094 56008 TSNO
KACY 080804Z 28005KT 10SM FEW005 OVC065 10/09 A2982 RMK AO2 RAE0755 P0000 T01000094
KACY 080754Z 30004KT 10SM -RA FEW005 BKN020 OVC065 10/10 A2982 RMK AO2 RAB24 SLP098 P0001 T01000100
KACY 080747Z 28005KT 10SM -RA FEW005 SCT018 OVC065 10/09 A2982 RMK AO2 RAB24 P0000 T01000094
KACY 080715Z 00000KT 10SM BKN016 OVC080 11/09 A2983 RMK AO2 T01060094
KACY 080654Z 31003KT 10SM SCT017 OVC080 11/09 A2983 RMK AO2 SLP100 T01060094
KACY 080554Z 00000KT 10SM FEW015 SCT041 OVC085 11/10 A2984 RMK AO2 SLP104 T01110100 10122 20106 58006
KACY 080454Z 00000KT 10SM OVC075 11/08 A2985 RMK AO2 SLP108 T01110083 401830061
KACY 080354Z VRB03KT 10SM BKN070 11/08 A2985 RMK AO2 SLP108 T01060078
KACY 080254Z 10005KT 10SM FEW055 FEW070 11/10 A2986 RMK AO2 SLP111 T01110100 50009
KACY 080154Z 12004KT 10SM FEW018 OVC070 12/11 A2987 RMK AO2 SLP114 T01220106
KACY 080054Z 12006KT 10SM SCT017 OVC070 12/10 A2985 RMK AO2 SLP108 T01220100
KACY 072354Z 11003KT 10SM CLR 12/09 A2983 RMK AO2 SLP102 T01220089 10178 20122 53002
KACY 072254Z 12005KT 10SM CLR 13/09 A2982 RMK AO2 SLP098 T01330089
KACY 072154Z 12007KT 10SM CLR 14/09 A2983 RMK AO2 SLP100 T01390094
KACY 072054Z 16007KT 10SM CLR 15/07 A2983 RMK AO2 SLP099 T01500072 56008
KACY 072033Z 16007KT 10SM CLR 16/08 A2983
KACY 071854Z 11010KT 10SM CLR 17/04 A2984 RMK AO2 SLP104 T01670039
KACY 071754Z 13010KT 10SM CLR 18/08 A2985 RMK AO2 SLP108 T01780078 10183 20122 58018
KACY 071654Z 13009KT 10SM CLR 18/07 A2987 RMK AO2 SLP115 T01830067
KACY 071554Z 11008KT 10SM CLR 17/04 A2989 RMK AO2 SLP120 T01720039
KACY 071454Z 08007KT 10SM CLR 16/02 A2990 RMK AO2 SLP126 T01610022 58002
KACY 071354Z 10009KT 10SM CLR 16/02 A2990 RMK AO2 SLP126 T01610022
KACY 071254Z 10008KT 10SM CLR 14/03 A2991 RMK AO2 SLP128 T01440028
KACY 071154Z 05006KT 10SM CLR 12/02 A2991 RMK AO2 SLP127 T01220022 10122 20061 56001
KACY 071054Z 00000KT 10SM CLR 08/02 A2991 RMK AO2 SLP128 T00830022
KACY 070954Z 00000KT 10SM CLR 06/02 A2991 RMK AO2 SLP127 T00610017
KACY 070854Z 00000KT 10SM CLR 07/02 A2991 RMK AO2 SLP129 T00670022 58006
KACY 070754Z 00000KT 10SM CLR 07/02 A2992 RMK AO2 SLP131 T00720022
KACY 070654Z 00000KT 10SM CLR 08/03 A2993 RMK AO2 SLP134 T00780028
KACY 070454Z 36004KT 10SM CLR 09/05 A2994 RMK AO2 SLP139 T00940050 401940089
KACY 070354Z 33003KT 10SM CLR 10/06 A2994 RMK AO2 SLP139 T01000056
KACY 070254Z 00000KT 10SM BKN070 13/06 A2995 RMK AO2 SLP142 T01280056 50007
KACY 070154Z 26003KT 10SM BKN070 13/06 A2996 RMK AO2 SLP145 T01280061
KACY 070054Z 00000KT 10SM CLR 14/06 A2994 RMK AO2 SLP139 T01440056
KACY 062354Z 08003KT 10SM CLR 15/04 A2993 RMK AO2 SLP135 T01500044 10194 20150 53011
KACY 062254Z 33007KT 10SM CLR 17/02 A2991 RMK AO2 SLP126 T01720022
KACY 062154Z 30007KT 10SM CLR 18/02 A2990 RMK AO2 SLP125 T01780022
KACY 062054Z 33012G17KT 10SM CLR 19/03 A2990 RMK AO2 SLP124 T01940033 56018
KACY 061954Z 31007KT 10SM CLR 19/03 A2991 RMK AO2 SLP128 T01890033
KACY 061854Z VRB05KT 10SM CLR 18/02 A2993 RMK AO2 SLP135 T01830017
KACY 061754Z 32010G17KT 270V330 10SM CLR 18/03 A2995 RMK AO2 SLP141 T01780033 10183 20117 58013